sim
Sign-in with your pilot id or email,
or register
Callsign
Passwort

Schedule Details

Flight Number: DLH474 (3)
Departure: Munich Airport (EDDM) at 13:45
Arrival: Montreal Pierre Elliott Trudeau Airport (CYUL) at 22:40
Route: Lufthansa Passenger Schedule. Enter filed route here before submitting Pirep.

Weather Information
Getting current METAR information for EDDM 190120Z VRB02KT CAVOK 07/04 Q1021 NOSIG
Getting current METAR information for CYUL 190100Z 32007KT 15SM BKN090 10/M01 A3024 RMK AC6 SLP241

Schedule Frequency

Route Map